sensor_id;sensor_type;location;lat;lon;timestamp;P1;durP1;ratioP1;P2;durP2;ratioP2
70008;SDS011;59542;37.950;-122.338;2023-04-06T00:02:09;2.45;;;0.80;;
70008;SDS011;59542;37.950;-122.338;2023-04-06T00:04:35;3.28;;;0.90;;
70008;SDS011;59542;37.950;-122.338;2023-04-06T00:07:01;1.45;;;0.95;;
70008;SDS011;59542;37.950;-122.338;2023-04-06T00:09:27;1.70;;;0.88;;
70008;SDS011;59542;37.950;-122.338;2023-04-06T00:11:54;3.30;;;0.95;;
70008;SDS011;59542;37.950;-122.338;2023-04-06T00:14:20;4.18;;;1.00;;
70008;SDS011;59542;37.950;-122.338;2023-04-06T00:16:46;2.53;;;0.73;;
70008;SDS011;59542;37.950;-122.338;2023-04-06T00:19:13;1.55;;;0.90;;
70008;SDS011;59542;37.950;-122.338;2023-04-06T00:21:39;2.22;;;0.80;;
70008;SDS011;59542;37.950;-122.338;2023-04-06T00:24:05;3.45;;;1.10;;
70008;SDS011;59542;37.950;-122.338;2023-04-06T00:26:32;1.83;;;0.80;;
70008;SDS011;59542;37.950;-122.338;2023-04-06T00:28:58;2.42;;;0.90;;
70008;SDS011;59542;37.950;-122.338;2023-04-06T00:31:24;8.27;;;1.65;;
70008;SDS011;59542;37.950;-122.338;2023-04-06T00:33:51;6.25;;;1.20;;
70008;SDS011;59542;37.950;-122.338;2023-04-06T00:36:17;4.80;;;0.85;;
70008;SDS011;59542;37.950;-122.338;2023-04-06T00:38:43;3.10;;;1.02;;
70008;SDS011;59542;37.950;-122.338;2023-04-06T00:41:09;1.25;;;0.40;;
70008;SDS011;59542;37.950;-122.338;2023-04-06T00:43:36;2.47;;;0.80;;
70008;SDS011;59542;37.950;-122.338;2023-04-06T00:46:02;2.15;;;0.70;;
70008;SDS011;59542;37.950;-122.338;2023-04-06T00:48:28;5.13;;;0.88;;
70008;SDS011;59542;37.950;-122.338;2023-04-06T00:50:56;1.75;;;0.70;;
70008;SDS011;59542;37.950;-122.338;2023-04-06T00:53:24;3.25;;;0.80;;
70008;SDS011;59542;37.950;-122.338;2023-04-06T00:55:50;1.27;;;0.68;;
70008;SDS011;59542;37.950;-122.338;2023-04-06T00:58:16;1.52;;;0.60;;
70008;SDS011;59542;37.950;-122.338;2023-04-06T01:00:43;1.98;;;0.75;;
70008;SDS011;59542;37.950;-122.338;2023-04-06T01:03:09;4.30;;;1.05;;
70008;SDS011;59542;37.950;-122.338;2023-04-06T01:05:36;2.65;;;0.93;;
70008;SDS011;59542;37.950;-122.338;2023-04-06T01:08:06;2.67;;;0.52;;
70008;SDS011;59542;37.950;-122.338;2023-04-06T01:10:33;1.38;;;0.50;;
70008;SDS011;59542;37.950;-122.338;2023-04-06T01:12:59;3.00;;;0.57;;
70008;SDS011;59542;37.950;-122.338;2023-04-06T01:15:25;1.58;;;0.90;;
70008;SDS011;59542;37.950;-122.338;2023-04-06T01:17:52;1.30;;;0.60;;
70008;SDS011;59542;37.950;-122.338;2023-04-06T01:20:21;3.83;;;0.85;;
70008;SDS011;59542;37.950;-122.338;2023-04-06T01:22:47;2.05;;;0.95;;
70008;SDS011;59542;37.950;-122.338;2023-04-06T01:25:13;2.95;;;0.80;;
70008;SDS011;59542;37.950;-122.338;2023-04-06T01:27:40;2.45;;;1.00;;
70008;SDS011;59542;37.950;-122.338;2023-04-06T01:30:06;2.95;;;1.00;;
70008;SDS011;59542;37.950;-122.338;2023-04-06T01:32:33;0.90;;;0.60;;
70008;SDS011;59542;37.950;-122.338;2023-04-06T01:34:59;1.92;;;0.80;;
70008;SDS011;59542;37.950;-122.338;2023-04-06T01:37:26;1.80;;;0.70;;
70008;SDS011;59542;37.950;-122.338;2023-04-06T01:39:52;2.90;;;0.90;;
70008;SDS011;59542;37.950;-122.338;2023-04-06T01:42:18;4.55;;;1.17;;
70008;SDS011;59542;37.950;-122.338;2023-04-06T01:44:45;1.63;;;0.75;;
70008;SDS011;59542;37.950;-122.338;2023-04-06T01:47:11;1.63;;;0.60;;
70008;SDS011;59542;37.950;-122.338;2023-04-06T01:49:37;1.92;;;0.80;;
70008;SDS011;59542;37.950;-122.338;2023-04-06T01:52:03;2.38;;;0.70;;
70008;SDS011;59542;37.950;-122.338;2023-04-06T01:54:30;2.67;;;0.70;;
70008;SDS011;59542;37.950;-122.338;2023-04-06T01:56:56;1.65;;;0.63;;
70008;SDS011;59542;37.950;-122.338;2023-04-06T01:59:23;5.35;;;1.17;;
70008;SDS011;59542;37.950;-122.338;2023-04-06T02:01:49;2.63;;;0.70;;
70008;SDS011;59542;37.950;-122.338;2023-04-06T02:04:16;2.65;;;0.80;;
70008;SDS011;59542;37.950;-122.338;2023-04-06T02:06:42;2.28;;;0.80;;
70008;SDS011;59542;37.950;-122.338;2023-04-06T02:09:08;6.68;;;0.95;;
70008;SDS011;59542;37.950;-122.338;2023-04-06T02:11:35;3.67;;;0.90;;
70008;SDS011;59542;37.950;-122.338;2023-04-06T02:14:01;2.40;;;1.13;;
70008;SDS011;59542;37.950;-122.338;2023-04-06T02:16:28;3.42;;;0.82;;
70008;SDS011;59542;37.950;-122.338;2023-04-06T02:18:54;2.45;;;0.80;;
70008;SDS011;59542;37.950;-122.338;2023-04-06T02:21:20;2.88;;;0.80;;
70008;SDS011;59542;37.950;-122.338;2023-04-06T02:23:47;2.97;;;0.82;;
70008;SDS011;59542;37.950;-122.338;2023-04-06T02:26:14;1.85;;;0.90;;
70008;SDS011;59542;37.950;-122.338;2023-04-06T02:28:40;2.95;;;0.70;;
70008;SDS011;59542;37.950;-122.338;2023-04-06T02:31:08;2.25;;;0.85;;
70008;SDS011;59542;37.950;-122.338;2023-04-06T02:33:34;3.25;;;1.00;;
70008;SDS011;59542;37.950;-122.338;2023-04-06T02:36:00;1.80;;;0.77;;
70008;SDS011;59542;37.950;-122.338;2023-04-06T02:38:27;2.53;;;0.98;;
70008;SDS011;59542;37.950;-122.338;2023-04-06T02:40:53;2.83;;;0.80;;
70008;SDS011;59542;37.950;-122.338;2023-04-06T02:43:19;3.00;;;0.80;;
70008;SDS011;59542;37.950;-122.338;2023-04-06T02:45:46;3.83;;;1.00;;
70008;SDS011;59542;37.950;-122.338;2023-04-06T02:48:12;2.95;;;1.10;;
70008;SDS011;59542;37.950;-122.338;2023-04-06T02:50:38;1.63;;;0.70;;
70008;SDS011;59542;37.950;-122.338;2023-04-06T02:53:04;2.45;;;0.85;;
70008;SDS011;59542;37.950;-122.338;2023-04-06T02:55:31;2.40;;;0.80;;
70008;SDS011;59542;37.950;-122.338;2023-04-06T02:57:57;3.33;;;1.27;;
70008;SDS011;59542;37.950;-122.338;2023-04-06T03:00:23;3.83;;;2.13;;
70008;SDS011;59542;37.950;-122.338;2023-04-06T03:02:50;12.38;;;6.80;;
70008;SDS011;59542;37.950;-122.338;2023-04-06T03:05:16;11.93;;;8.00;;
70008;SDS011;59542;37.950;-122.338;2023-04-06T03:07:42;13.93;;;10.43;;
70008;SDS011;59542;37.950;-122.338;2023-04-06T03:10:09;9.38;;;4.85;;
70008;SDS011;59542;37.950;-122.338;2023-04-06T03:12:35;5.78;;;2.00;;
70008;SDS011;59542;37.950;-122.338;2023-04-06T03:15:02;3.28;;;1.50;;
70008;SDS011;59542;37.950;-122.338;2023-04-06T03:17:28;3.30;;;0.90;;
70008;SDS011;59542;37.950;-122.338;2023-04-06T03:19:54;2.28;;;0.80;;
70008;SDS011;59542;37.950;-122.338;2023-04-06T03:22:21;1.95;;;1.00;;
70008;SDS011;59542;37.950;-122.338;2023-04-06T03:24:47;3.53;;;1.30;;
70008;SDS011;59542;37.950;-122.338;2023-04-06T03:27:13;2.72;;;0.98;;
70008;SDS011;59542;37.950;-122.338;2023-04-06T03:29:40;3.92;;;1.25;;
70008;SDS011;59542;37.950;-122.338;2023-04-06T03:32:06;1.70;;;0.90;;
70008;SDS011;59542;37.950;-122.338;2023-04-06T03:34:32;2.35;;;0.77;;
70008;SDS011;59542;37.950;-122.338;2023-04-06T03:36:59;3.45;;;0.90;;
70008;SDS011;59542;37.950;-122.338;2023-04-06T03:39:25;0.80;;;0.77;;
70008;SDS011;59542;37.950;-122.338;2023-04-06T03:41:51;1.13;;;0.73;;
70008;SDS011;59542;37.950;-122.338;2023-04-06T03:44:18;1.92;;;0.98;;
70008;SDS011;59542;37.950;-122.338;2023-04-06T03:46:45;2.55;;;1.08;;
70008;SDS011;59542;37.950;-122.338;2023-04-06T03:49:11;1.58;;;1.08;;
70008;SDS011;59542;37.950;-122.338;2023-04-06T03:51:37;2.42;;;0.90;;
70008;SDS011;59542;37.950;-122.338;2023-04-06T03:54:03;4.10;;;1.10;;
70008;SDS011;59542;37.950;-122.338;2023-04-06T03:56:30;2.78;;;1.00;;
70008;SDS011;59542;37.950;-122.338;2023-04-06T03:58:56;4.85;;;1.38;;
70008;SDS011;59542;37.950;-122.338;2023-04-06T04:01:22;3.92;;;0.98;;
70008;SDS011;59542;37.950;-122.338;2023-04-06T04:03:49;2.58;;;1.02;;
70008;SDS011;59542;37.950;-122.338;2023-04-06T04:06:15;3.10;;;1.20;;
70008;SDS011;59542;37.950;-122.338;2023-04-06T04:08:41;1.67;;;0.95;;
70008;SDS011;59542;37.950;-122.338;2023-04-06T04:11:08;4.25;;;1.40;;
70008;SDS011;59542;37.950;-122.338;2023-04-06T04:13:34;4.43;;;0.93;;
70008;SDS011;59542;37.950;-122.338;2023-04-06T04:16:00;1.98;;;1.05;;
70008;SDS011;59542;37.950;-122.338;2023-04-06T04:18:26;2.97;;;1.13;;
70008;SDS011;59542;37.950;-122.338;2023-04-06T04:20:53;5.43;;;1.05;;
70008;SDS011;59542;37.950;-122.338;2023-04-06T04:23:19;2.80;;;1.20;;
70008;SDS011;59542;37.950;-122.338;2023-04-06T04:25:45;5.93;;;1.30;;
70008;SDS011;59542;37.950;-122.338;2023-04-06T04:28:11;2.95;;;1.20;;
70008;SDS011;59542;37.950;-122.338;2023-04-06T04:30:38;4.72;;;1.38;;
70008;SDS011;59542;37.950;-122.338;2023-04-06T04:33:04;4.22;;;1.38;;
70008;SDS011;59542;37.950;-122.338;2023-04-06T04:35:31;3.13;;;1.10;;
70008;SDS011;59542;37.950;-122.338;2023-04-06T04:37:57;5.68;;;0.90;;
70008;SDS011;59542;37.950;-122.338;2023-04-06T04:40:23;2.10;;;1.00;;
70008;SDS011;59542;37.950;-122.338;2023-04-06T04:42:50;4.10;;;1.30;;
70008;SDS011;59542;37.950;-122.338;2023-04-06T04:45:16;4.63;;;1.65;;
70008;SDS011;59542;37.950;-122.338;2023-04-06T04:47:43;5.15;;;1.50;;
70008;SDS011;59542;37.950;-122.338;2023-04-06T04:50:09;3.22;;;1.65;;
70008;SDS011;59542;37.950;-122.338;2023-04-06T04:52:37;2.92;;;1.38;;
70008;SDS011;59542;37.950;-122.338;2023-04-06T04:55:03;4.57;;;1.52;;
70008;SDS011;59542;37.950;-122.338;2023-04-06T04:57:30;2.65;;;1.42;;
70008;SDS011;59542;37.950;-122.338;2023-04-06T04:59:56;5.28;;;1.30;;
70008;SDS011;59542;37.950;-122.338;2023-04-06T05:02:23;3.55;;;1.60;;
70008;SDS011;59542;37.950;-122.338;2023-04-06T05:04:49;4.03;;;1.35;;
70008;SDS011;59542;37.950;-122.338;2023-04-06T05:07:16;4.13;;;1.10;;
70008;SDS011;59542;37.950;-122.338;2023-04-06T05:09:43;3.63;;;1.70;;
70008;SDS011;59542;37.950;-122.338;2023-04-06T05:12:10;2.30;;;1.27;;
70008;SDS011;59542;37.950;-122.338;2023-04-06T05:14:36;5.07;;;1.55;;
70008;SDS011;59542;37.950;-122.338;2023-04-06T05:17:03;6.07;;;1.50;;
70008;SDS011;59542;37.950;-122.338;2023-04-06T05:19:29;3.13;;;1.40;;
70008;SDS011;59542;37.950;-122.338;2023-04-06T05:21:56;3.83;;;1.25;;
70008;SDS011;59542;37.950;-122.338;2023-04-06T05:24:22;5.60;;;1.35;;
70008;SDS011;59542;37.950;-122.338;2023-04-06T05:26:48;5.97;;;2.10;;
70008;SDS011;59542;37.950;-122.338;2023-04-06T05:29:15;4.50;;;1.50;;
70008;SDS011;59542;37.950;-122.338;2023-04-06T05:31:42;7.30;;;1.88;;
70008;SDS011;59542;37.950;-122.338;2023-04-06T05:34:08;4.75;;;2.00;;
70008;SDS011;59542;37.950;-122.338;2023-04-06T05:36:35;5.72;;;1.95;;
70008;SDS011;59542;37.950;-122.338;2023-04-06T05:39:01;3.13;;;1.60;;
70008;SDS011;59542;37.950;-122.338;2023-04-06T05:41:27;4.82;;;1.90;;
70008;SDS011;59542;37.950;-122.338;2023-04-06T05:43:54;5.95;;;1.95;;
70008;SDS011;59542;37.950;-122.338;2023-04-06T05:46:20;4.95;;;1.90;;
70008;SDS011;59542;37.950;-122.338;2023-04-06T05:48:47;3.83;;;2.20;;
70008;SDS011;59542;37.950;-122.338;2023-04-06T05:51:13;7.40;;;2.70;;
70008;SDS011;59542;37.950;-122.338;2023-04-06T05:53:39;5.28;;;2.30;;
70008;SDS011;59542;37.950;-122.338;2023-04-06T05:56:06;3.63;;;1.98;;
70008;SDS011;59542;37.950;-122.338;2023-04-06T05:58:32;8.02;;;2.53;;
70008;SDS011;59542;37.950;-122.338;2023-04-06T06:00:59;7.03;;;2.55;;
70008;SDS011;59542;37.950;-122.338;2023-04-06T06:03:26;7.78;;;3.50;;
70008;SDS011;59542;37.950;-122.338;2023-04-06T06:05:52;11.20;;;4.80;;
70008;SDS011;59542;37.950;-122.338;2023-04-06T06:08:19;9.10;;;5.40;;
70008;SDS011;59542;37.950;-122.338;2023-04-06T06:10:45;10.48;;;3.25;;
70008;SDS011;59542;37.950;-122.338;2023-04-06T06:13:11;4.80;;;2.00;;
70008;SDS011;59542;37.950;-122.338;2023-04-06T06:15:37;3.45;;;1.80;;
70008;SDS011;59542;37.950;-122.338;2023-04-06T06:18:04;5.28;;;1.85;;
70008;SDS011;59542;37.950;-122.338;2023-04-06T06:20:30;5.70;;;1.75;;
70008;SDS011;59542;37.950;-122.338;2023-04-06T06:22:56;6.72;;;2.60;;
70008;SDS011;59542;37.950;-122.338;2023-04-06T06:25:22;2.95;;;1.65;;
70008;SDS011;59542;37.950;-122.338;2023-04-06T06:27:49;2.80;;;1.38;;
70008;SDS011;59542;37.950;-122.338;2023-04-06T06:30:15;7.97;;;2.05;;
70008;SDS011;59542;37.950;-122.338;2023-04-06T06:32:42;4.65;;;1.65;;
70008;SDS011;59542;37.950;-122.338;2023-04-06T06:35:08;2.95;;;1.42;;
70008;SDS011;59542;37.950;-122.338;2023-04-06T06:37:35;6.45;;;2.05;;
70008;SDS011;59542;37.950;-122.338;2023-04-06T06:40:01;5.63;;;1.77;;
70008;SDS011;59542;37.950;-122.338;2023-04-06T06:42:28;3.28;;;1.55;;
70008;SDS011;59542;37.950;-122.338;2023-04-06T06:44:54;7.72;;;2.70;;
70008;SDS011;59542;37.950;-122.338;2023-04-06T06:47:20;5.85;;;2.05;;
70008;SDS011;59542;37.950;-122.338;2023-04-06T06:49:46;4.50;;;2.03;;
70008;SDS011;59542;37.950;-122.338;2023-04-06T06:52:12;7.03;;;2.03;;
70008;SDS011;59542;37.950;-122.338;2023-04-06T06:54:39;4.53;;;2.03;;
70008;SDS011;59542;37.950;-122.338;2023-04-06T06:57:05;4.38;;;1.27;;
70008;SDS011;59542;37.950;-122.338;2023-04-06T06:59:31;3.00;;;1.40;;
70008;SDS011;59542;37.950;-122.338;2023-04-06T07:01:58;3.83;;;1.70;;
70008;SDS011;59542;37.950;-122.338;2023-04-06T07:04:24;3.83;;;1.42;;
70008;SDS011;59542;37.950;-122.338;2023-04-06T07:06:50;4.55;;;2.22;;
70008;SDS011;59542;37.950;-122.338;2023-04-06T07:09:18;2.08;;;1.50;;
70008;SDS011;59542;37.950;-122.338;2023-04-06T07:11:44;4.40;;;1.65;;
70008;SDS011;59542;37.950;-122.338;2023-04-06T07:14:10;7.43;;;2.00;;
70008;SDS011;59542;37.950;-122.338;2023-04-06T07:16:37;3.08;;;1.65;;
70008;SDS011;59542;37.950;-122.338;2023-04-06T07:19:03;6.68;;;2.03;;
70008;SDS011;59542;37.950;-122.338;2023-04-06T07:21:29;3.65;;;1.45;;
70008;SDS011;59542;37.950;-122.338;2023-04-06T07:23:55;6.68;;;1.60;;
70008;SDS011;59542;37.950;-122.338;2023-04-06T07:26:22;3.65;;;1.58;;
70008;SDS011;59542;37.950;-122.338;2023-04-06T07:28:48;4.25;;;1.40;;
70008;SDS011;59542;37.950;-122.338;2023-04-06T07:31:14;4.57;;;1.42;;
70008;SDS011;59542;37.950;-122.338;2023-04-06T07:33:41;4.53;;;1.55;;
70008;SDS011;59542;37.950;-122.338;2023-04-06T07:36:07;2.92;;;1.58;;
70008;SDS011;59542;37.950;-122.338;2023-04-06T07:38:33;4.43;;;2.10;;
70008;SDS011;59542;37.950;-122.338;2023-04-06T07:41:00;4.50;;;2.10;;
70008;SDS011;59542;37.950;-122.338;2023-04-06T07:43:28;5.03;;;1.85;;
70008;SDS011;59542;37.950;-122.338;2023-04-06T07:45:54;6.00;;;1.95;;
70008;SDS011;59542;37.950;-122.338;2023-04-06T07:48:22;5.00;;;1.40;;
70008;SDS011;59542;37.950;-122.338;2023-04-06T07:50:49;3.42;;;1.50;;
70008;SDS011;59542;37.950;-122.338;2023-04-06T07:53:15;3.88;;;1.45;;
70008;SDS011;59542;37.950;-122.338;2023-04-06T07:55:41;2.17;;;1.30;;
70008;SDS011;59542;37.950;-122.338;2023-04-06T07:58:07;3.92;;;1.38;;
70008;SDS011;59542;37.950;-122.338;2023-04-06T08:00:34;4.38;;;1.52;;
70008;SDS011;59542;37.950;-122.338;2023-04-06T08:03:00;4.95;;;1.98;;
70008;SDS011;59542;37.950;-122.338;2023-04-06T08:05:26;3.58;;;1.55;;
70008;SDS011;59542;37.950;-122.338;2023-04-06T08:07:53;6.57;;;1.25;;
70008;SDS011;59542;37.950;-122.338;2023-04-06T08:10:19;2.50;;;1.40;;
70008;SDS011;59542;37.950;-122.338;2023-04-06T08:12:46;2.88;;;1.67;;
70008;SDS011;59542;37.950;-122.338;2023-04-06T08:15:12;2.53;;;1.20;;
70008;SDS011;59542;37.950;-122.338;2023-04-06T08:17:38;2.50;;;1.20;;
70008;SDS011;59542;37.950;-122.338;2023-04-06T08:20:05;5.22;;;1.88;;
70008;SDS011;59542;37.950;-122.338;2023-04-06T08:22:31;4.18;;;1.60;;
70008;SDS011;59542;37.950;-122.338;2023-04-06T08:24:57;6.05;;;1.48;;
70008;SDS011;59542;37.950;-122.338;2023-04-06T08:27:24;3.95;;;1.65;;
70008;SDS011;59542;37.950;-122.338;2023-04-06T08:29:50;5.20;;;1.50;;
70008;SDS011;59542;37.950;-122.338;2023-04-06T08:32:16;3.83;;;1.88;;
70008;SDS011;59542;37.950;-122.338;2023-04-06T08:34:43;3.45;;;1.88;;
70008;SDS011;59542;37.950;-122.338;2023-04-06T08:37:09;4.03;;;2.10;;
70008;SDS011;59542;37.950;-122.338;2023-04-06T08:39:35;4.93;;;2.20;;
70008;SDS011;59542;37.950;-122.338;2023-04-06T08:42:02;4.28;;;2.03;;
70008;SDS011;59542;37.950;-122.338;2023-04-06T08:44:28;4.10;;;1.90;;
70008;SDS011;59542;37.950;-122.338;2023-04-06T08:46:57;5.72;;;2.42;;
70008;SDS011;59542;37.950;-122.338;2023-04-06T08:49:25;6.97;;;2.40;;
70008;SDS011;59542;37.950;-122.338;2023-04-06T08:51:53;6.53;;;1.80;;
70008;SDS011;59542;37.950;-122.338;2023-04-06T08:54:22;3.70;;;1.70;;
70008;SDS011;59542;37.950;-122.338;2023-04-06T08:56:49;2.97;;;1.80;;
70008;SDS011;59542;37.950;-122.338;2023-04-06T08:59:17;5.80;;;1.80;;
70008;SDS011;59542;37.950;-122.338;2023-04-06T09:01:44;6.43;;;2.13;;
70008;SDS011;59542;37.950;-122.338;2023-04-06T09:04:11;4.03;;;1.60;;
70008;SDS011;59542;37.950;-122.338;2023-04-06T09:06:38;6.85;;;1.98;;
70008;SDS011;59542;37.950;-122.338;2023-04-06T09:09:05;8.38;;;2.40;;
70008;SDS011;59542;37.950;-122.338;2023-04-06T09:11:45;6.32;;;1.98;;
70008;SDS011;59542;37.950;-122.338;2023-04-06T09:14:13;8.70;;;2.20;;
70008;SDS011;59542;37.950;-122.338;2023-04-06T09:16:41;5.28;;;2.45;;
70008;SDS011;59542;37.950;-122.338;2023-04-06T09:19:09;5.45;;;2.00;;
70008;SDS011;59542;37.950;-122.338;2023-04-06T09:21:36;3.97;;;2.00;;
70008;SDS011;59542;37.950;-122.338;2023-04-06T09:24:06;3.15;;;1.77;;
70008;SDS011;59542;37.950;-122.338;2023-04-06T09:26:44;3.90;;;1.55;;
70008;SDS011;59542;37.950;-122.338;2023-04-06T09:29:21;5.88;;;2.30;;
70008;SDS011;59542;37.950;-122.338;2023-04-06T09:31:51;6.68;;;2.15;;
70008;SDS011;59542;37.950;-122.338;2023-04-06T09:34:21;7.65;;;2.13;;
70008;SDS011;59542;37.950;-122.338;2023-04-06T09:36:49;5.72;;;2.08;;
70008;SDS011;59542;37.950;-122.338;2023-04-06T09:39:19;3.70;;;1.67;;
70008;SDS011;59542;37.950;-122.338;2023-04-06T09:41:51;5.80;;;1.90;;
70008;SDS011;59542;37.950;-122.338;2023-04-06T09:44:19;5.05;;;1.98;;
70008;SDS011;59542;37.950;-122.338;2023-04-06T09:46:46;3.22;;;2.13;;
70008;SDS011;59542;37.950;-122.338;2023-04-06T09:49:13;4.97;;;1.92;;
70008;SDS011;59542;37.950;-122.338;2023-04-06T09:51:41;3.70;;;2.00;;
70008;SDS011;59542;37.950;-122.338;2023-04-06T09:54:07;6.97;;;2.05;;
70008;SDS011;59542;37.950;-122.338;2023-04-06T09:56:41;8.35;;;2.78;;
70008;SDS011;59542;37.950;-122.338;2023-04-06T09:59:25;6.13;;;2.70;;
70008;SDS011;59542;37.950;-122.338;2023-04-06T10:01:58;5.53;;;2.20;;
70008;SDS011;59542;37.950;-122.338;2023-04-06T10:04:35;6.75;;;2.50;;
70008;SDS011;59542;37.950;-122.338;2023-04-06T10:07:09;6.57;;;2.20;;
70008;SDS011;59542;37.950;-122.338;2023-04-06T10:09:40;5.78;;;2.17;;
70008;SDS011;59542;37.950;-122.338;2023-04-06T10:12:10;8.07;;;2.30;;
70008;SDS011;59542;37.950;-122.338;2023-04-06T10:14:38;5.28;;;2.28;;
70008;SDS011;59542;37.950;-122.338;2023-04-06T10:17:06;6.38;;;2.50;;
70008;SDS011;59542;37.950;-122.338;2023-04-06T10:19:44;6.93;;;3.03;;
70008;SDS011;59542;37.950;-122.338;2023-04-06T10:22:24;9.85;;;2.63;;
70008;SDS011;59542;37.950;-122.338;2023-04-06T10:25:00;5.53;;;2.72;;
70008;SDS011;59542;37.950;-122.338;2023-04-06T10:27:30;4.45;;;2.25;;
70008;SDS011;59542;37.950;-122.338;2023-04-06T10:30:02;6.43;;;2.80;;
70008;SDS011;59542;37.950;-122.338;2023-04-06T10:32:37;7.25;;;2.50;;
70008;SDS011;59542;37.950;-122.338;2023-04-06T10:35:08;5.30;;;2.00;;
70008;SDS011;59542;37.950;-122.338;2023-04-06T10:40:28;2.47;;;2.17;;
70008;SDS011;59542;37.950;-122.338;2023-04-06T10:43:07;7.60;;;2.20;;
70008;SDS011;59542;37.950;-122.338;2023-04-06T10:45:38;5.97;;;2.10;;
70008;SDS011;59542;37.950;-122.338;2023-04-06T10:50:47;5.72;;;2.38;;
70008;SDS011;59542;37.950;-122.338;2023-04-06T10:53:26;3.40;;;1.98;;
70008;SDS011;59542;37.950;-122.338;2023-04-06T10:55:56;7.38;;;2.33;;
70008;SDS011;59542;37.950;-122.338;2023-04-06T10:58:26;5.50;;;2.28;;
70008;SDS011;59542;37.950;-122.338;2023-04-06T11:00:53;6.32;;;2.33;;
70008;SDS011;59542;37.950;-122.338;2023-04-06T11:03:21;7.93;;;2.53;;
70008;SDS011;59542;37.950;-122.338;2023-04-06T11:05:48;5.38;;;2.00;;
70008;SDS011;59542;37.950;-122.338;2023-04-06T11:08:25;5.55;;;2.42;;
70008;SDS011;59542;37.950;-122.338;2023-04-06T11:11:05;9.75;;;2.47;;
70008;SDS011;59542;37.950;-122.338;2023-04-06T11:13:37;5.65;;;2.30;;
70008;SDS011;59542;37.950;-122.338;2023-04-06T11:16:11;6.05;;;2.42;;
70008;SDS011;59542;37.950;-122.338;2023-04-06T11:18:48;5.30;;;2.10;;
70008;SDS011;59542;37.950;-122.338;2023-04-06T11:21:15;3.47;;;2.10;;
70008;SDS011;59542;37.950;-122.338;2023-04-06T11:23:42;4.25;;;1.98;;
70008;SDS011;59542;37.950;-122.338;2023-04-06T11:26:12;5.88;;;2.40;;
70008;SDS011;59542;37.950;-122.338;2023-04-06T11:28:42;5.93;;;2.38;;
70008;SDS011;59542;37.950;-122.338;2023-04-06T11:31:12;4.30;;;2.00;;
70008;SDS011;59542;37.950;-122.338;2023-04-06T11:33:39;5.90;;;2.50;;
70008;SDS011;59542;37.950;-122.338;2023-04-06T11:36:05;4.50;;;2.10;;
70008;SDS011;59542;37.950;-122.338;2023-04-06T11:38:32;6.35;;;2.42;;
70008;SDS011;59542;37.950;-122.338;2023-04-06T11:41:00;6.97;;;2.42;;
70008;SDS011;59542;37.950;-122.338;2023-04-06T11:43:30;5.63;;;2.05;;
70008;SDS011;59542;37.950;-122.338;2023-04-06T11:46:00;6.30;;;2.40;;
70008;SDS011;59542;37.950;-122.338;2023-04-06T11:48:28;5.43;;;2.30;;
70008;SDS011;59542;37.950;-122.338;2023-04-06T11:50:58;7.05;;;2.50;;
70008;SDS011;59542;37.950;-122.338;2023-04-06T11:53:29;4.50;;;2.10;;
70008;SDS011;59542;37.950;-122.338;2023-04-06T11:55:56;5.70;;;2.33;;
70008;SDS011;59542;37.950;-122.338;2023-04-06T11:58:22;3.67;;;2.00;;
70008;SDS011;59542;37.950;-122.338;2023-04-06T12:00:48;3.80;;;2.33;;
70008;SDS011;59542;37.950;-122.338;2023-04-06T12:03:15;5.32;;;2.08;;
70008;SDS011;59542;37.950;-122.338;2023-04-06T12:05:41;7.40;;;2.30;;
70008;SDS011;59542;37.950;-122.338;2023-04-06T12:08:07;5.55;;;2.40;;
70008;SDS011;59542;37.950;-122.338;2023-04-06T12:10:34;4.97;;;2.53;;
70008;SDS011;59542;37.950;-122.338;2023-04-06T12:13:00;3.85;;;2.05;;
70008;SDS011;59542;37.950;-122.338;2023-04-06T12:15:26;3.22;;;2.22;;
70008;SDS011;59542;37.950;-122.338;2023-04-06T12:17:52;4.28;;;1.90;;
70008;SDS011;59542;37.950;-122.338;2023-04-06T12:20:19;4.43;;;2.03;;
70008;SDS011;59542;37.950;-122.338;2023-04-06T12:22:45;5.97;;;2.53;;
70008;SDS011;59542;37.950;-122.338;2023-04-06T12:25:11;5.75;;;2.15;;
70008;SDS011;59542;37.950;-122.338;2023-04-06T12:27:37;6.85;;;2.30;;
70008;SDS011;59542;37.950;-122.338;2023-04-06T12:30:04;3.88;;;1.80;;
70008;SDS011;59542;37.950;-122.338;2023-04-06T12:32:31;5.45;;;2.38;;
70008;SDS011;59542;37.950;-122.338;2023-04-06T12:34:57;2.75;;;2.08;;
70008;SDS011;59542;37.950;-122.338;2023-04-06T12:37:23;6.45;;;2.05;;
70008;SDS011;59542;37.950;-122.338;2023-04-06T12:39:50;5.03;;;2.22;;
70008;SDS011;59542;37.950;-122.338;2023-04-06T12:42:16;5.07;;;2.45;;
70008;SDS011;59542;37.950;-122.338;2023-04-06T12:44:43;6.72;;;2.42;;
70008;SDS011;59542;37.950;-122.338;2023-04-06T12:47:09;5.13;;;2.30;;
70008;SDS011;59542;37.950;-122.338;2023-04-06T12:49:36;6.40;;;2.88;;
70008;SDS011;59542;37.950;-122.338;2023-04-06T12:52:02;7.40;;;3.13;;
70008;SDS011;59542;37.950;-122.338;2023-04-06T12:54:29;5.30;;;2.60;;
70008;SDS011;59542;37.950;-122.338;2023-04-06T12:56:56;5.70;;;2.47;;
70008;SDS011;59542;37.950;-122.338;2023-04-06T12:59:22;6.90;;;2.25;;
70008;SDS011;59542;37.950;-122.338;2023-04-06T13:01:50;9.63;;;2.42;;
70008;SDS011;59542;37.950;-122.338;2023-04-06T13:04:17;6.78;;;2.72;;
70008;SDS011;59542;37.950;-122.338;2023-04-06T13:06:44;4.55;;;2.33;;
70008;SDS011;59542;37.950;-122.338;2023-04-06T13:09:10;3.95;;;1.95;;
70008;SDS011;59542;37.950;-122.338;2023-04-06T13:11:36;5.97;;;2.53;;
70008;SDS011;59542;37.950;-122.338;2023-04-06T13:14:04;7.70;;;2.80;;
70008;SDS011;59542;37.950;-122.338;2023-04-06T13:16:30;6.10;;;2.38;;
70008;SDS011;59542;37.950;-122.338;2023-04-06T13:18:57;4.97;;;2.50;;
70008;SDS011;59542;37.950;-122.338;2023-04-06T13:21:23;8.73;;;2.80;;
70008;SDS011;59542;37.950;-122.338;2023-04-06T13:23:50;4.78;;;2.60;;
70008;SDS011;59542;37.950;-122.338;2023-04-06T13:26:17;5.60;;;1.92;;
70008;SDS011;59542;37.950;-122.338;2023-04-06T13:28:43;6.10;;;2.70;;
70008;SDS011;59542;37.950;-122.338;2023-04-06T13:31:09;7.60;;;2.40;;
70008;SDS011;59542;37.950;-122.338;2023-04-06T13:33:36;5.85;;;2.10;;
70008;SDS011;59542;37.950;-122.338;2023-04-06T13:36:02;5.72;;;2.10;;
70008;SDS011;59542;37.950;-122.338;2023-04-06T13:38:29;6.28;;;2.22;;
70008;SDS011;59542;37.950;-122.338;2023-04-06T13:40:55;3.13;;;1.90;;
70008;SDS011;59542;37.950;-122.338;2023-04-06T13:43:22;5.97;;;2.65;;
70008;SDS011;59542;37.950;-122.338;2023-04-06T13:45:51;3.92;;;2.10;;
70008;SDS011;59542;37.950;-122.338;2023-04-06T13:48:20;4.18;;;2.00;;
70008;SDS011;59542;37.950;-122.338;2023-04-06T13:50:46;5.53;;;2.10;;
70008;SDS011;59542;37.950;-122.338;2023-04-06T13:53:13;3.67;;;2.55;;
70008;SDS011;59542;37.950;-122.338;2023-04-06T13:55:39;6.78;;;2.42;;
70008;SDS011;59542;37.950;-122.338;2023-04-06T13:58:06;4.57;;;2.42;;
70008;SDS011;59542;37.950;-122.338;2023-04-06T14:00:32;4.82;;;2.03;;
70008;SDS011;59542;37.950;-122.338;2023-04-06T14:02:58;6.07;;;2.50;;
70008;SDS011;59542;37.950;-122.338;2023-04-06T14:05:25;3.90;;;2.30;;
70008;SDS011;59542;37.950;-122.338;2023-04-06T14:07:53;5.15;;;2.63;;
70008;SDS011;59542;37.950;-122.338;2023-04-06T14:10:19;12.98;;;2.95;;
70008;SDS011;59542;37.950;-122.338;2023-04-06T14:12:48;7.28;;;3.20;;
70008;SDS011;59542;37.950;-122.338;2023-04-06T14:15:15;7.70;;;2.90;;